Time;durP1;ratioP1;P1;durP2;ratioP2;P2;SDS_P1;SDS_P2;PMS_P1;PMS_P2;Temp;Humidity;BMP_temperature;BMP_pressure;BME280_temperature;BME280_humidity;BME280_pressure;Samples;Min_cycle;Max_cycle;Signal;HPM_P1;HPM_P2
2021/04/19 00:00:24;;;;;;;16.97;7.50;;;;;;;;;;5089490;28;20117;-79
2021/04/19 00:02:49;;;;;;;18.50;7.80;;;;;;;;;;5096260;28;20062;-79
2021/04/19 00:05:15;;;;;;;17.30;8.43;;;;;;;;;;5095487;28;20047;-79
2021/04/19 00:07:40;;;;;;;17.63;8.17;;;;;;;;;;5075659;28;20020;-79
2021/04/19 00:10:07;;;;;;;17.03;7.63;;;;;;;;;;5071683;28;20367;-79
2021/04/19 00:12:32;;;;;;;21.67;8.30;;;;;;;;;;5075057;28;20030;-79
2021/04/19 00:14:58;;;;;;;23.00;8.07;;;;;;;;;;5089933;28;20574;-79
2021/04/19 00:17:23;;;;;;;17.97;8.10;;;;;;;;;;5094976;28;20100;-79
2021/04/19 00:19:48;;;;;;;16.93;7.57;;;;;;;;;;5092004;28;20041;-79
2021/04/19 00:22:13;;;;;;;20.67;7.70;;;;;;;;;;5091046;28;20020;-79
2021/04/19 00:24:39;;;;;;;15.97;7.53;;;;;;;;;;5095058;28;20107;-79
2021/04/19 00:27:04;;;;;;;16.33;6.80;;;;;;;;;;5089330;28;20464;-79
2021/04/19 00:29:30;;;;;;;17.13;7.70;;;;;;;;;;5095099;28;20020;-79
2021/04/19 00:31:55;;;;;;;17.77;7.43;;;;;;;;;;5090679;28;20384;-79
2021/04/19 00:34:20;;;;;;;19.13;8.03;;;;;;;;;;5089161;28;20024;-79
2021/04/19 00:36:46;;;;;;;17.97;7.83;;;;;;;;;;5087241;28;20028;-79
2021/04/19 00:39:13;;;;;;;18.10;6.80;;;;;;;;;;5094641;28;20476;-79
2021/04/19 00:41:38;;;;;;;18.03;8.13;;;;;;;;;;5083950;28;20036;-79
2021/04/19 00:44:04;;;;;;;17.10;7.77;;;;;;;;;;5093052;28;20036;-79
2021/04/19 00:46:29;;;;;;;20.47;8.00;;;;;;;;;;5076616;28;20100;-79
2021/04/19 00:48:55;;;;;;;19.87;7.60;;;;;;;;;;5093432;28;20492;-79
2021/04/19 00:51:20;;;;;;;22.87;7.93;;;;;;;;;;5086816;28;20031;-79
2021/04/19 00:53:46;;;;;;;17.83;7.20;;;;;;;;;;5072374;28;20383;-79
2021/04/19 00:56:11;;;;;;;18.57;6.97;;;;;;;;;;5091287;28;20024;-78
2021/04/19 00:58:37;;;;;;;20.07;8.10;;;;;;;;;;5091593;28;21956;-78
2021/04/19 01:01:06;;;;;;;19.37;8.23;;;;;;;;;;5094640;28;20115;-79
2021/04/19 01:03:31;;;;;;;16.33;6.93;;;;;;;;;;5091802;28;20032;-79
2021/04/19 01:05:57;;;;;;;17.63;6.53;;;;;;;;;;5087659;28;20103;-79
2021/04/19 01:08:22;;;;;;;15.43;6.73;;;;;;;;;;5088314;28;20032;-79
2021/04/19 01:10:47;;;;;;;14.57;5.90;;;;;;;;;;5090605;28;20345;-79
2021/04/19 01:13:13;;;;;;;16.67;6.33;;;;;;;;;;5090798;28;20066;-79
2021/04/19 01:15:38;;;;;;;20.33;7.50;;;;;;;;;;5066322;28;20115;-79
2021/04/19 01:18:03;;;;;;;13.70;6.83;;;;;;;;;;5070384;28;20092;-79
2021/04/19 01:20:31;;;;;;;15.93;5.97;;;;;;;;;;5092695;28;20036;-79
2021/04/19 01:22:57;;;;;;;15.93;6.20;;;;;;;;;;5093551;28;20472;-79
2021/04/19 01:25:24;;;;;;;13.23;6.27;;;;;;;;;;5081554;28;20026;-79
2021/04/19 01:27:50;;;;;;;13.70;6.23;;;;;;;;;;5072912;28;20031;-79
2021/04/19 01:30:16;;;;;;;17.07;7.20;;;;;;;;;;5095224;28;20028;-79
2021/04/19 01:32:42;;;;;;;16.67;6.57;;;;;;;;;;5093436;28;20335;-79
2021/04/19 01:35:08;;;;;;;20.80;7.57;;;;;;;;;;5091165;28;20675;-78
2021/04/19 01:37:33;;;;;;;16.43;6.63;;;;;;;;;;5079632;28;20039;-78
2021/04/19 01:39:59;;;;;;;16.77;7.13;;;;;;;;;;5105271;28;20028;-79
2021/04/19 01:42:24;;;;;;;18.70;6.63;;;;;;;;;;5092751;28;20028;-79
2021/04/19 01:44:49;;;;;;;15.23;6.63;;;;;;;;;;5087324;28;20027;-79
2021/04/19 01:47:15;;;;;;;16.63;6.60;;;;;;;;;;5095973;28;20074;-79
2021/04/19 01:49:40;;;;;;;17.53;6.37;;;;;;;;;;5094361;28;20058;-79
2021/04/19 01:52:06;;;;;;;17.47;6.37;;;;;;;;;;5096044;28;20028;-79
2021/04/19 01:54:31;;;;;;;12.47;6.17;;;;;;;;;;5098579;28;20035;-79
2021/04/19 01:56:56;;;;;;;14.77;6.13;;;;;;;;;;5088637;28;20510;-79
2021/04/19 01:59:22;;;;;;;12.60;5.67;;;;;;;;;;5095850;28;20114;-79
2021/04/19 02:01:56;;;;;;;13.83;6.37;;;;;;;;;;5093749;28;20256;-79
2021/04/19 02:04:44;;;;;;;15.10;6.07;;;;;;;;;;5093197;28;20047;-79
2021/04/19 02:07:23;;;;;;;12.80;6.17;;;;;;;;;;5079192;28;20043;-79
2021/04/19 02:10:02;;;;;;;18.03;6.47;;;;;;;;;;5090951;28;20248;-79
2021/04/19 02:12:49;;;;;;;15.60;6.67;;;;;;;;;;5092454;28;20031;-78
2021/04/19 02:15:15;;;;;;;16.93;6.70;;;;;;;;;;5090643;28;20372;-79
2021/04/19 02:17:45;;;;;;;15.33;6.63;;;;;;;;;;5093400;28;20024;-79
2021/04/19 02:20:31;;;;;;;20.00;7.03;;;;;;;;;;5074920;28;20429;-79
2021/04/19 02:23:00;;;;;;;21.73;7.50;;;;;;;;;;5093272;28;20100;-79
2021/04/19 02:25:29;;;;;;;19.97;7.60;;;;;;;;;;5074773;28;20506;-79
2021/04/19 02:27:58;;;;;;;19.23;7.33;;;;;;;;;;5093458;28;20034;-79
2021/04/19 02:30:26;;;;;;;20.90;7.20;;;;;;;;;;5081090;28;20024;-79
2021/04/19 02:32:53;;;;;;;19.50;8.63;;;;;;;;;;5077622;28;20036;-77
2021/04/19 02:35:20;;;;;;;22.77;8.27;;;;;;;;;;5088140;28;20039;-78
2021/04/19 02:37:46;;;;;;;18.23;7.37;;;;;;;;;;5087646;28;20024;-78
2021/04/19 02:40:13;;;;;;;19.87;8.40;;;;;;;;;;5083897;28;20032;-78
2021/04/19 02:42:39;;;;;;;19.67;7.93;;;;;;;;;;5081059;28;20801;-77
2021/04/19 02:45:07;;;;;;;20.20;8.00;;;;;;;;;;5083179;28;20035;-77
2021/04/19 02:47:32;;;;;;;19.53;8.50;;;;;;;;;;5078347;28;20036;-77
2021/04/19 02:49:58;;;;;;;19.07;6.67;;;;;;;;;;5070200;28;20454;-77
2021/04/19 02:52:24;;;;;;;14.53;6.30;;;;;;;;;;5084492;28;20137;-77
2021/04/19 02:54:50;;;;;;;17.73;8.00;;;;;;;;;;5079103;28;20032;-77
2021/04/19 02:57:25;;;;;;;17.87;8.73;;;;;;;;;;5082895;28;20031;-77
2021/04/19 02:59:51;;;;;;;18.53;7.77;;;;;;;;;;5081705;28;20111;-77
2021/04/19 03:02:18;;;;;;;17.33;6.87;;;;;;;;;;5081750;28;20045;-77
2021/04/19 03:04:43;;;;;;;18.47;7.33;;;;;;;;;;5085081;28;20115;-76
2021/04/19 03:07:09;;;;;;;19.20;6.93;;;;;;;;;;5085623;28;20119;-77
2021/04/19 03:09:37;;;;;;;16.77;6.97;;;;;;;;;;5088628;28;20027;-77
2021/04/19 03:12:04;;;;;;;17.27;6.63;;;;;;;;;;5093610;28;20420;-77
2021/04/19 03:14:33;;;;;;;15.83;7.43;;;;;;;;;;5105520;28;20027;-77
2021/04/19 03:17:06;;;;;;;14.87;6.80;;;;;;;;;;5084207;28;20036;-77
2021/04/19 03:19:33;;;;;;;20.70;7.80;;;;;;;;;;5090071;28;20490;-77
2021/04/19 03:21:59;;;;;;;19.83;7.77;;;;;;;;;;5096074;28;20426;-77
2021/04/19 03:24:26;;;;;;;18.87;7.93;;;;;;;;;;5105899;28;20391;-77
2021/04/19 03:26:52;;;;;;;20.37;8.10;;;;;;;;;;5089898;28;20032;-76
2021/04/19 03:29:17;;;;;;;19.17;7.80;;;;;;;;;;5102319;28;20020;-77
2021/04/19 03:31:53;;;;;;;21.63;7.67;;;;;;;;;;5088571;28;20024;-77
2021/04/19 03:34:22;;;;;;;19.17;7.73;;;;;;;;;;5089144;28;20042;-77
2021/04/19 03:36:49;;;;;;;23.17;7.93;;;;;;;;;;5090752;28;20123;-77
2021/04/19 03:39:15;;;;;;;21.13;8.37;;;;;;;;;;5091589;28;20055;-77
2021/04/19 03:41:44;;;;;;;21.53;8.37;;;;;;;;;;5083813;28;20085;-77
2021/04/19 03:44:11;;;;;;;21.00;8.83;;;;;;;;;;5091682;28;20043;-77
2021/04/19 03:46:39;;;;;;;19.17;7.80;;;;;;;;;;5091301;28;20160;-76
2021/04/19 03:49:07;;;;;;;27.20;8.67;;;;;;;;;;5091254;28;20032;-76
2021/04/19 03:51:33;;;;;;;23.17;8.77;;;;;;;;;;5084760;28;20415;-76
2021/04/19 03:54:00;;;;;;;23.43;9.03;;;;;;;;;;5097038;28;20032;-76
2021/04/19 03:56:27;;;;;;;28.23;9.30;;;;;;;;;;5081999;28;20034;-77
2021/04/19 03:58:55;;;;;;;25.03;8.50;;;;;;;;;;5092515;28;20047;-76
2021/04/19 04:01:21;;;;;;;22.03;8.93;;;;;;;;;;5092089;28;20032;-76
2021/04/19 04:03:48;;;;;;;25.83;8.80;;;;;;;;;;5093538;28;20085;-76
2021/04/19 04:06:14;;;;;;;20.57;8.23;;;;;;;;;;5095088;28;20032;-76
2021/04/19 04:08:40;;;;;;;24.07;8.43;;;;;;;;;;5092155;28;20062;-76
2021/04/19 04:11:06;;;;;;;25.10;9.43;;;;;;;;;;5091954;28;20411;-77
2021/04/19 04:13:33;;;;;;;23.47;8.87;;;;;;;;;;5072423;28;20059;-77
2021/04/19 04:15:59;;;;;;;25.40;9.73;;;;;;;;;;5090771;28;20028;-77
2021/04/19 04:18:25;;;;;;;27.70;9.60;;;;;;;;;;5092032;28;20051;-77
2021/04/19 04:20:50;;;;;;;19.50;8.37;;;;;;;;;;5091542;28;20743;-77
2021/04/19 04:23:16;;;;;;;25.80;8.90;;;;;;;;;;5102860;28;20442;-77
2021/04/19 04:25:41;;;;;;;26.47;9.30;;;;;;;;;;5097509;28;20105;-77
2021/04/19 04:28:07;;;;;;;27.30;10.20;;;;;;;;;;5093472;28;20036;-77
2021/04/19 04:30:35;;;;;;;24.80;9.70;;;;;;;;;;5092593;28;20039;-77
2021/04/19 04:33:04;;;;;;;25.47;9.10;;;;;;;;;;5101681;28;20098;-77
2021/04/19 04:35:30;;;;;;;24.33;8.77;;;;;;;;;;5099688;28;20044;-78
2021/04/19 04:37:57;;;;;;;28.33;8.60;;;;;;;;;;5091057;28;20416;-77
2021/04/19 04:40:22;;;;;;;24.60;8.60;;;;;;;;;;5059406;28;20517;-77
2021/04/19 04:42:49;;;;;;;29.07;8.77;;;;;;;;;;5089282;28;20036;-77
2021/04/19 04:45:14;;;;;;;24.40;8.10;;;;;;;;;;5088970;28;20027;-77
2021/04/19 04:47:43;;;;;;;24.20;8.10;;;;;;;;;;5098797;28;20027;-77
2021/04/19 04:50:41;;;;;;;28.63;9.43;;;;;;;;;;5090027;28;20020;-77
2021/04/19 04:53:07;;;;;;;26.73;9.33;;;;;;;;;;5029024;28;20123;-77
2021/04/19 04:55:33;;;;;;;22.13;8.47;;;;;;;;;;5071758;28;20071;-77
2021/04/19 04:58:00;;;;;;;24.97;8.60;;;;;;;;;;5094250;28;20436;-78
2021/04/19 05:00:25;;;;;;;24.93;8.07;;;;;;;;;;5092984;28;20124;-77
2021/04/19 05:02:52;;;;;;;26.90;8.53;;;;;;;;;;5094333;28;20470;-77
2021/04/19 05:05:18;;;;;;;24.37;9.37;;;;;;;;;;5087425;28;20527;-77
2021/04/19 05:07:44;;;;;;;22.57;9.50;;;;;;;;;;5096981;28;20028;-77
2021/04/19 05:10:10;;;;;;;23.90;9.23;;;;;;;;;;5099603;28;20050;-77
2021/04/19 05:12:37;;;;;;;25.27;8.43;;;;;;;;;;5098540;28;20027;-77
2021/04/19 05:15:07;;;;;;;27.67;9.60;;;;;;;;;;5092557;28;20362;-77
2021/04/19 05:17:32;;;;;;;22.77;8.27;;;;;;;;;;5086074;28;20028;-77
2021/04/19 05:19:57;;;;;;;26.80;8.83;;;;;;;;;;5087424;28;20116;-78
2021/04/19 05:22:22;;;;;;;23.97;8.50;;;;;;;;;;5088894;28;20035;-77
2021/04/19 05:24:48;;;;;;;25.23;10.17;;;;;;;;;;5093721;28;20510;-76
2021/04/19 05:27:14;;;;;;;22.57;8.33;;;;;;;;;;5092365;28;20027;-77
2021/04/19 05:29:40;;;;;;;19.93;8.53;;;;;;;;;;5087636;28;20074;-77
2021/04/19 05:32:06;;;;;;;23.37;9.33;;;;;;;;;;5088052;28;20023;-77
2021/04/19 05:34:32;;;;;;;23.13;8.60;;;;;;;;;;5089591;28;20077;-78
2021/04/19 05:36:57;;;;;;;22.47;7.80;;;;;;;;;;5085916;28;20344;-78
2021/04/19 05:39:23;;;;;;;18.33;7.90;;;;;;;;;;5088718;28;20111;-78
2021/04/19 05:41:48;;;;;;;23.87;8.43;;;;;;;;;;5090037;28;20050;-78
2021/04/19 05:44:13;;;;;;;29.53;9.33;;;;;;;;;;5091911;28;20042;-78
2021/04/19 05:46:39;;;;;;;26.67;9.60;;;;;;;;;;5090825;28;20380;-78
2021/04/19 05:49:04;;;;;;;28.37;9.27;;;;;;;;;;5087387;28;20051;-78
2021/04/19 05:51:35;;;;;;;22.73;8.07;;;;;;;;;;5097930;28;20027;-77
2021/04/19 05:54:01;;;;;;;26.50;8.83;;;;;;;;;;5095317;28;20030;-77
2021/04/19 05:56:39;;;;;;;25.60;9.03;;;;;;;;;;5083730;28;20376;-77
2021/04/19 05:59:22;;;;;;;23.73;8.73;;;;;;;;;;5086876;28;20032;-77
2021/04/19 06:01:49;;;;;;;29.37;9.03;;;;;;;;;;5083399;28;20030;-77
2021/04/19 06:04:17;;;;;;;23.10;7.97;;;;;;;;;;5081964;28;20044;-77
2021/04/19 06:06:46;;;;;;;21.00;8.27;;;;;;;;;;5079335;28;20119;-77
2021/04/19 06:09:20;;;;;;;19.17;7.80;;;;;;;;;;5095751;28;20062;-78
2021/04/19 06:11:57;;;;;;;17.30;7.13;;;;;;;;;;5087257;28;20115;-77
2021/04/19 06:14:28;;;;;;;21.17;7.90;;;;;;;;;;5090189;28;20027;-77
2021/04/19 06:16:55;;;;;;;18.67;7.88;;;;;;;;;;5086165;28;20472;-77
2021/04/19 06:19:21;;;;;;;18.90;7.40;;;;;;;;;;5083933;28;20026;-77
2021/04/19 06:21:46;;;;;;;17.07;6.73;;;;;;;;;;5105250;28;20390;-77
2021/04/19 06:24:12;;;;;;;23.63;8.50;;;;;;;;;;5109363;28;20028;-77
2021/04/19 06:26:37;;;;;;;20.33;8.00;;;;;;;;;;5073421;28;20031;-77
2021/04/19 06:29:03;;;;;;;16.00;6.70;;;;;;;;;;5089523;28;20048;-77
2021/04/19 06:31:28;;;;;;;23.60;8.20;;;;;;;;;;5078548;28;20024;-77
2021/04/19 06:34:09;;;;;;;19.37;8.17;;;;;;;;;;5075700;28;20051;-78
2021/04/19 06:36:42;;;;;;;16.33;6.57;;;;;;;;;;5069964;28;20028;-78
2021/04/19 06:39:08;;;;;;;16.60;6.68;;;;;;;;;;5098721;28;20024;-78
2021/04/19 06:41:34;;;;;;;22.03;7.97;;;;;;;;;;5094842;28;20059;-77
2021/04/19 06:43:59;;;;;;;20.47;7.83;;;;;;;;;;5096001;28;20055;-77
2021/04/19 06:46:26;;;;;;;20.50;8.00;;;;;;;;;;5088342;28;20478;-77
2021/04/19 06:48:51;;;;;;;18.33;7.40;;;;;;;;;;5098031;28;20019;-78
2021/04/19 06:51:16;;;;;;;16.03;6.77;;;;;;;;;;5097628;28;20035;-78
2021/04/19 06:53:42;;;;;;;21.13;7.93;;;;;;;;;;5109141;28;20058;-78
2021/04/19 06:56:07;;;;;;;19.10;6.73;;;;;;;;;;5095894;28;20028;-78
2021/04/19 06:58:35;;;;;;;20.30;8.10;;;;;;;;;;5098470;28;20046;-77
2021/04/19 07:01:01;;;;;;;24.83;7.87;;;;;;;;;;5096878;28;20063;-78
2021/04/19 07:03:28;;;;;;;17.83;7.33;;;;;;;;;;5092519;28;20051;-78
2021/04/19 07:05:54;;;;;;;20.40;7.23;;;;;;;;;;5081358;28;20524;-78
2021/04/19 07:08:22;;;;;;;20.00;7.83;;;;;;;;;;5088533;28;20031;-77
2021/04/19 07:10:49;;;;;;;20.10;8.27;;;;;;;;;;5085456;28;20073;-77
2021/04/19 07:13:15;;;;;;;20.00;8.10;;;;;;;;;;5109465;28;20356;-77
2021/04/19 07:15:42;;;;;;;22.10;7.90;;;;;;;;;;5086065;28;20066;-78
2021/04/19 07:18:07;;;;;;;18.50;7.43;;;;;;;;;;5101229;28;20027;-78
2021/04/19 07:20:33;;;;;;;19.90;7.17;;;;;;;;;;5081673;28;20024;-77
2021/04/19 07:23:00;;;;;;;18.33;7.87;;;;;;;;;;5105037;28;20075;-77
2021/04/19 07:25:25;;;;;;;20.40;7.50;;;;;;;;;;5102108;28;20020;-78
2021/04/19 07:27:51;;;;;;;14.63;6.00;;;;;;;;;;5088628;28;20126;-77
2021/04/19 07:30:16;;;;;;;14.30;6.67;;;;;;;;;;5083771;28;20124;-78
2021/04/19 07:32:42;;;;;;;19.13;5.77;;;;;;;;;;5088498;28;20028;-78
2021/04/19 07:35:08;;;;;;;17.03;6.80;;;;;;;;;;5085062;28;20047;-78
2021/04/19 07:37:34;;;;;;;14.90;6.30;;;;;;;;;;5085870;28;20064;-77
2021/04/19 07:40:02;;;;;;;14.97;6.27;;;;;;;;;;5105518;28;20461;-78
2021/04/19 07:42:27;;;;;;;17.00;7.00;;;;;;;;;;5088331;28;20403;-78
2021/04/19 07:44:53;;;;;;;16.90;7.30;;;;;;;;;;5088085;28;20028;-78
2021/04/19 07:47:21;;;;;;;17.63;6.70;;;;;;;;;;5093367;28;20403;-78
2021/04/19 07:49:56;;;;;;;16.77;6.70;;;;;;;;;;5102363;28;20023;-78
2021/04/19 07:52:21;;;;;;;16.10;6.03;;;;;;;;;;5087409;28;20023;-77
2021/04/19 07:55:01;;;;;;;14.50;6.17;;;;;;;;;;5106693;28;20480;-77
2021/04/19 07:57:26;;;;;;;19.47;6.13;;;;;;;;;;5096779;28;20024;-77
2021/04/19 07:59:51;;;;;;;16.40;6.63;;;;;;;;;;5106693;28;20035;-78
2021/04/19 08:02:18;;;;;;;14.57;5.97;;;;;;;;;;5096118;28;20458;-78
2021/04/19 08:04:45;;;;;;;16.47;7.00;;;;;;;;;;5107449;28;20024;-78
2021/04/19 08:07:16;;;;;;;18.43;6.70;;;;;;;;;;5100129;28;20024;-77
2021/04/19 08:09:51;;;;;;;24.63;8.43;;;;;;;;;;5111259;28;20072;-77
2021/04/19 08:12:17;;;;;;;16.20;6.80;;;;;;;;;;5101992;28;20024;-78
2021/04/19 08:14:52;;;;;;;16.83;7.17;;;;;;;;;;5101870;28;20379;-78
2021/04/19 08:17:17;;;;;;;16.33;6.37;;;;;;;;;;5091902;28;20026;-78
2021/04/19 08:19:42;;;;;;;16.87;7.23;;;;;;;;;;5108657;28;20020;-77
2021/04/19 08:22:12;;;;;;;15.97;6.63;;;;;;;;;;5091904;28;20031;-77
2021/04/19 08:24:37;;;;;;;16.60;6.50;;;;;;;;;;5108143;22;20477;-68
2021/04/19 08:27:02;;;;;;;18.90;7.27;;;;;;;;;;5090659;28;20103;-68
2021/04/19 08:29:57;;;;;;;16.27;6.63;;;;;;;;;;5073739;28;20028;-65
2021/04/19 08:32:22;;;;;;;17.47;7.00;;;;;;;;;;5064580;28;20036;-65
2021/04/19 08:34:49;;;;;;;16.47;6.40;;;;;;;;;;5084949;28;20028;-66
2021/04/19 08:37:18;;;;;;;19.43;7.20;;;;;;;;;;5089142;28;20043;-66
2021/04/19 08:39:44;;;;;;;18.50;6.97;;;;;;;;;;5090517;28;20509;-66
2021/04/19 08:42:10;;;;;;;17.93;7.10;;;;;;;;;;5071254;28;20036;-66
2021/04/19 08:44:35;;;;;;;15.63;6.47;;;;;;;;;;5076293;28;20380;-66
2021/04/19 08:47:02;;;;;;;16.33;6.73;;;;;;;;;;5090039;28;20028;-67
2021/04/19 08:49:28;;;;;;;14.20;5.80;;;;;;;;;;5083131;28;20025;-66
2021/04/19 08:51:53;;;;;;;15.07;6.37;;;;;;;;;;5086204;28;20023;-66
2021/04/19 08:54:19;;;;;;;14.83;5.80;;;;;;;;;;5082316;28;20040;-66
2021/04/19 08:56:44;;;;;;;17.13;6.07;;;;;;;;;;5084647;28;20040;-66
2021/04/19 08:59:10;;;;;;;12.63;5.53;;;;;;;;;;5071200;28;20064;-66
2021/04/19 09:01:35;;;;;;;13.80;5.03;;;;;;;;;;5083938;28;20047;-66
2021/04/19 09:04:01;;;;;;;12.70;5.83;;;;;;;;;;5064254;28;20471;-66
2021/04/19 09:06:38;;;;;;;14.77;5.83;;;;;;;;;;5066051;28;20536;-66
2021/04/19 09:09:03;;;;;;;15.23;5.87;;;;;;;;;;5070344;28;20078;-66
2021/04/19 09:11:28;;;;;;;15.13;5.70;;;;;;;;;;5070233;28;20032;-66
2021/04/19 09:14:02;;;;;;;13.40;5.20;;;;;;;;;;5063090;28;20108;-67
2021/04/19 09:16:32;;;;;;;13.07;5.57;;;;;;;;;;5065454;28;20548;-67
2021/04/19 09:18:58;;;;;;;12.47;5.60;;;;;;;;;;5059566;28;20123;-70
2021/04/19 09:21:41;;;;;;;14.67;5.33;;;;;;;;;;5054135;28;20107;-67
2021/04/19 09:24:08;;;;;;;11.13;4.23;;;;;;;;;;5050083;28;20102;-68
2021/04/19 09:26:47;;;;;;;11.37;4.97;;;;;;;;;;5066393;28;20033;-67
2021/04/19 09:29:24;;;;;;;9.20;4.17;;;;;;;;;;5070368;28;20155;-66
2021/04/19 09:31:55;;;;;;;10.17;4.20;;;;;;;;;;5050445;28;20037;-67
2021/04/19 09:34:35;;;;;;;15.63;6.47;;;;;;;;;;5055049;28;20063;-67
2021/04/19 09:37:00;;;;;;;26.10;8.63;;;;;;;;;;5050849;28;20040;-67
2021/04/19 09:39:41;;;;;;;14.60;5.80;;;;;;;;;;5057206;28;20040;-66
2021/04/19 09:42:07;;;;;;;15.70;6.17;;;;;;;;;;5069085;28;20094;-67
2021/04/19 09:44:32;;;;;;;13.30;5.47;;;;;;;;;;5051793;28;20473;-66
2021/04/19 09:46:57;;;;;;;12.10;4.97;;;;;;;;;;5068803;28;20041;-66
2021/04/19 09:49:23;;;;;;;11.40;5.03;;;;;;;;;;5068397;28;20036;-67
2021/04/19 09:51:48;;;;;;;11.83;4.33;;;;;;;;;;5069418;28;20031;-66
2021/04/19 09:54:15;;;;;;;10.40;4.43;;;;;;;;;;5057369;28;20170;-66
2021/04/19 09:56:40;;;;;;;11.87;4.60;;;;;;;;;;5052879;28;20078;-67
2021/04/19 09:59:07;;;;;;;13.70;5.30;;;;;;;;;;5067863;28;20032;-66
2021/04/19 10:01:33;;;;;;;11.83;5.23;;;;;;;;;;5054343;28;20178;-67
2021/04/19 10:03:59;;;;;;;14.63;6.10;;;;;;;;;;5066252;28;20111;-67
2021/04/19 10:06:25;;;;;;;12.17;4.47;;;;;;;;;;5054919;28;20029;-67
2021/04/19 10:08:51;;;;;;;14.80;5.00;;;;;;;;;;5063677;28;20032;-67
2021/04/19 10:11:27;;;;;;;10.87;4.27;;;;;;;;;;5067230;28;20416;-67
2021/04/19 10:13:53;;;;;;;11.13;4.87;;;;;;;;;;5066081;28;20453;-66
2021/04/19 10:16:18;;;;;;;11.37;5.03;;;;;;;;;;5067356;28;20037;-67
2021/04/19 10:18:48;;;;;;;11.73;5.27;;;;;;;;;;5069515;28;20058;-67
2021/04/19 10:21:24;;;;;;;10.83;4.47;;;;;;;;;;5068948;28;20032;-67
2021/04/19 10:23:49;;;;;;;10.73;4.67;;;;;;;;;;5066638;28;20040;-67
2021/04/19 10:26:15;;;;;;;10.60;4.53;;;;;;;;;;5056423;28;20032;-67
2021/04/19 10:28:42;;;;;;;11.67;5.30;;;;;;;;;;5066486;28;20017;-67
2021/04/19 10:31:21;;;;;;;9.43;4.47;;;;;;;;;;5057614;28;20083;-67
2021/04/19 10:33:48;;;;;;;8.60;4.10;;;;;;;;;;5068628;28;20029;-67
2021/04/19 10:36:14;;;;;;;10.57;4.77;;;;;;;;;;5061372;28;20529;-67
2021/04/19 10:38:40;;;;;;;10.80;4.93;;;;;;;;;;5069131;28;20039;-67
2021/04/19 10:41:06;;;;;;;10.60;4.47;;;;;;;;;;5057241;28;20421;-67
2021/04/19 10:43:31;;;;;;;10.03;4.50;;;;;;;;;;5058844;28;20083;-67
2021/04/19 10:45:56;;;;;;;11.50;4.73;;;;;;;;;;5054035;28;20036;-67
2021/04/19 10:48:23;;;;;;;9.27;4.63;;;;;;;;;;5068562;28;20036;-67
2021/04/19 10:50:49;;;;;;;10.43;5.10;;;;;;;;;;5055074;28;20043;-67
2021/04/19 10:53:30;;;;;;;11.20;5.17;;;;;;;;;;5048761;28;20457;-67
2021/04/19 10:55:59;;;;;;;11.50;5.13;;;;;;;;;;5052958;28;20385;-67
2021/04/19 10:58:25;;;;;;;11.03;5.00;;;;;;;;;;5056027;28;20031;-67
2021/04/19 11:00:50;;;;;;;9.10;4.70;;;;;;;;;;5062792;28;20381;-67
2021/04/19 11:03:16;;;;;;;10.10;4.83;;;;;;;;;;5069118;28;20020;-67
2021/04/19 11:05:41;;;;;;;11.17;4.67;;;;;;;;;;5066190;28;20029;-67
2021/04/19 11:08:06;;;;;;;10.93;5.13;;;;;;;;;;5067475;28;20081;-67
2021/04/19 11:10:31;;;;;;;9.60;4.50;;;;;;;;;;5068193;28;20028;-68
2021/04/19 11:12:59;;;;;;;9.43;4.63;;;;;;;;;;5067851;28;20028;-67
2021/04/19 11:15:28;;;;;;;9.30;4.40;;;;;;;;;;5052828;28;20033;-67
2021/04/19 11:17:53;;;;;;;8.40;4.30;;;;;;;;;;5053691;28;20428;-67
2021/04/19 11:20:19;;;;;;;10.83;5.20;;;;;;;;;;5055542;28;20032;-67
2021/04/19 11:22:44;;;;;;;9.93;4.93;;;;;;;;;;5060939;28;20370;-68
2021/04/19 11:25:12;;;;;;;9.40;5.03;;;;;;;;;;5063560;28;20052;-67
2021/04/19 11:27:38;;;;;;;11.03;5.20;;;;;;;;;;5056090;28;20473;-67
2021/04/19 11:30:16;;;;;;;8.43;4.50;;;;;;;;;;5066631;28;20037;-67
2021/04/19 11:32:41;;;;;;;14.07;5.67;;;;;;;;;;5068470;28;20106;-67
2021/04/19 11:35:07;;;;;;;9.80;4.80;;;;;;;;;;5067468;28;20119;-67
2021/04/19 11:37:37;;;;;;;10.60;5.47;;;;;;;;;;5060182;28;20025;-67
2021/04/19 11:40:06;;;;;;;9.20;4.70;;;;;;;;;;5067617;28;20036;-67
2021/04/19 11:42:33;;;;;;;11.47;5.47;;;;;;;;;;5061633;28;20032;-67
2021/04/19 11:44:59;;;;;;;12.80;6.23;;;;;;;;;;5069187;28;20094;-67
2021/04/19 11:47:24;;;;;;;10.63;5.30;;;;;;;;;;5052201;28;20025;-67
2021/04/19 11:49:51;;;;;;;11.60;5.27;;;;;;;;;;5071249;28;20095;-67
2021/04/19 11:52:17;;;;;;;10.40;4.80;;;;;;;;;;5072388;28;20071;-68
2021/04/19 11:54:42;;;;;;;9.10;4.17;;;;;;;;;;5068112;28;20064;-67
2021/04/19 11:57:07;;;;;;;10.37;4.90;;;;;;;;;;5071883;28;20051;-68
2021/04/19 11:59:33;;;;;;;9.38;4.82;;;;;;;;;;5072348;28;20040;-68
2021/04/19 12:02:00;;;;;;;9.68;4.85;;;;;;;;;;5052650;28;20405;-68
2021/04/19 12:04:25;;;;;;;8.15;4.18;;;;;;;;;;5064704;28;20036;-68
2021/04/19 12:06:51;;;;;;;10.03;4.80;;;;;;;;;;5053710;28;20040;-67
2021/04/19 12:09:16;;;;;;;9.57;5.13;;;;;;;;;;5052815;28;20082;-68
2021/04/19 12:11:41;;;;;;;10.67;5.30;;;;;;;;;;5061229;28;20029;-68
2021/04/19 12:14:06;;;;;;;10.73;4.93;;;;;;;;;;5069465;28;20032;-68
2021/04/19 12:16:32;;;;;;;10.47;5.17;;;;;;;;;;5056024;28;20036;-67
2021/04/19 12:18:58;;;;;;;11.00;4.53;;;;;;;;;;5069827;28;20117;-67
2021/04/19 12:21:23;;;;;;;8.80;4.83;;;;;;;;;;5064736;28;20155;-67
2021/04/19 12:23:48;;;;;;;8.70;4.80;;;;;;;;;;5050453;28;20136;-67
2021/04/19 12:26:14;;;;;;;10.37;5.03;;;;;;;;;;5054182;28;20044;-67
2021/04/19 12:28:39;;;;;;;7.47;3.95;;;;;;;;;;5066051;28;20031;-67
2021/04/19 12:31:06;;;;;;;10.43;5.57;;;;;;;;;;5066724;28;20024;-67
2021/04/19 12:33:31;;;;;;;9.27;4.63;;;;;;;;;;5066645;28;20028;-68
2021/04/19 12:35:57;;;;;;;9.10;4.55;;;;;;;;;;5068358;28;20442;-68
2021/04/19 12:38:22;;;;;;;10.33;5.20;;;;;;;;;;5070933;28;20024;-68
2021/04/19 12:40:48;;;;;;;10.53;5.43;;;;;;;;;;5058268;28;20040;-68
2021/04/19 12:43:13;;;;;;;9.50;4.90;;;;;;;;;;5059363;28;20032;-68
2021/04/19 12:45:39;;;;;;;10.17;5.00;;;;;;;;;;5061159;28;20495;-68
2021/04/19 12:48:07;;;;;;;13.27;8.02;;;;;;;;;;5051531;28;20059;-67
2021/04/19 12:50:33;;;;;;;9.60;4.90;;;;;;;;;;5061934;28;20039;-67
2021/04/19 12:52:59;;;;;;;8.93;4.85;;;;;;;;;;5053874;28;20365;-68
2021/04/19 12:55:25;;;;;;;10.05;4.90;;;;;;;;;;5064018;28;20039;-68
2021/04/19 12:57:50;;;;;;;9.98;5.25;;;;;;;;;;5051179;28;20381;-68
2021/04/19 13:00:16;;;;;;;10.55;4.57;;;;;;;;;;5063512;28;20063;-68
2021/04/19 13:02:41;;;;;;;9.75;4.70;;;;;;;;;;5066969;28;20024;-68
2021/04/19 13:05:07;;;;;;;8.05;4.05;;;;;;;;;;5066578;28;20519;-67
2021/04/19 13:07:32;;;;;;;11.10;5.10;;;;;;;;;;5065760;28;20028;-68
2021/04/19 13:09:57;;;;;;;10.47;5.07;;;;;;;;;;5070043;28;20120;-67
2021/04/19 13:12:22;;;;;;;11.80;5.30;;;;;;;;;;5069711;28;20020;-67
2021/04/19 13:14:48;;;;;;;10.50;5.00;;;;;;;;;;5068479;28;20086;-67
2021/04/19 13:17:13;;;;;;;8.40;4.57;;;;;;;;;;5061362;28;20059;-67
2021/04/19 13:19:39;;;;;;;10.63;4.73;;;;;;;;;;5068114;28;20032;-68
2021/04/19 13:22:04;;;;;;;8.37;4.27;;;;;;;;;;5063838;28;20044;-67
2021/04/19 13:24:29;;;;;;;7.67;4.20;;;;;;;;;;5069647;28;20086;-67
2021/04/19 13:26:55;;;;;;;11.43;4.60;;;;;;;;;;5061369;28;20056;-67
2021/04/19 13:29:20;;;;;;;9.10;4.80;;;;;;;;;;5063392;28;20456;-68
2021/04/19 13:31:48;;;;;;;10.00;5.07;;;;;;;;;;5066533;28;20024;-68
2021/04/19 13:34:14;;;;;;;9.60;4.93;;;;;;;;;;5056339;28;20033;-68
2021/04/19 13:36:40;;;;;;;10.35;5.30;;;;;;;;;;5059222;28;20056;-68
2021/04/19 13:39:05;;;;;;;11.63;5.10;;;;;;;;;;5065872;28;20118;-68
2021/04/19 13:41:30;;;;;;;9.53;4.80;;;;;;;;;;5065424;28;20024;-68
2021/04/19 13:43:58;;;;;;;9.27;5.10;;;;;;;;;;5066484;28;20037;-67
2021/04/19 13:46:23;;;;;;;10.00;4.90;;;;;;;;;;5054948;28;20029;-67
2021/04/19 13:48:48;;;;;;;9.63;5.10;;;;;;;;;;5070081;28;20104;-67
2021/04/19 13:51:14;;;;;;;9.73;4.90;;;;;;;;;;5064638;28;20040;-67
2021/04/19 13:53:39;;;;;;;9.57;5.00;;;;;;;;;;5069286;28;20036;-67
2021/04/19 13:56:08;;;;;;;8.93;4.17;;;;;;;;;;5062591;28;20032;-67
2021/04/19 13:58:33;;;;;;;10.80;4.87;;;;;;;;;;5066843;28;20040;-67
2021/04/19 14:00:59;;;;;;;11.97;5.10;;;;;;;;;;5060040;28;20044;-67
2021/04/19 14:03:25;;;;;;;8.97;4.33;;;;;;;;;;5069082;28;20031;-67
2021/04/19 14:05:50;;;;;;;10.93;5.20;;;;;;;;;;5059393;28;20465;-67
2021/04/19 14:08:16;;;;;;;10.77;4.80;;;;;;;;;;5055932;28;20053;-67
2021/04/19 14:10:41;;;;;;;10.37;5.60;;;;;;;;;;5055632;28;20037;-67
2021/04/19 14:13:13;;;;;;;11.87;4.90;;;;;;;;;;5049100;28;20068;-67
2021/04/19 14:15:38;;;;;;;9.82;4.80;;;;;;;;;;5058901;28;20063;-67
2021/04/19 14:18:03;;;;;;;10.57;5.07;;;;;;;;;;5055996;28;20052;-67
2021/04/19 14:20:29;;;;;;;10.23;5.10;;;;;;;;;;5069715;28;20028;-67
2021/04/19 14:22:55;;;;;;;9.73;4.70;;;;;;;;;;5067749;28;20392;-67
2021/04/19 14:25:20;;;;;;;9.77;4.73;;;;;;;;;;5063151;28;20524;-67
2021/04/19 14:27:45;;;;;;;10.00;5.20;;;;;;;;;;5068943;28;20051;-68
2021/04/19 14:30:11;;;;;;;11.77;5.20;;;;;;;;;;5055564;28;20064;-67